Time;durP1;ratioP1;P1;durP2;ratioP2;P2;SDS_P1;SDS_P2;PMS_P1;PMS_P2;Temp;Humidity;BMP_temperature;BMP_pressure;BME280_temperature;BME280_humidity;BME280_pressure;Samples;Min_cycle;Max_cycle;Signal;HPM_P1;HPM_P2
2021/01/26 00:01:03;;;;;;;25.60;9.97;;;;;;;2.98;69.30;98803.69;1702327;82;21148;-76
2021/01/26 00:03:32;;;;;;;20.30;9.43;;;;;;;2.98;69.64;98807.22;1709499;84;21183;-75
2021/01/26 00:06:00;;;;;;;29.85;10.50;;;;;;;2.98;70.17;98805.03;1710439;83;21687;-73
2021/01/26 00:08:27;;;;;;;23.10;9.50;;;;;;;2.97;70.17;98802.02;1680555;83;21175;-74
2021/01/26 00:10:57;;;;;;;21.87;9.08;;;;;;;2.97;70.44;98787.16;1691186;83;21111;-75
2021/01/26 00:13:24;;;;;;;21.10;9.13;;;;;;;2.98;70.69;98794.22;1686379;82;21116;-75
2021/01/26 00:15:52;;;;;;;22.32;9.35;;;;;;;3.00;70.18;98786.70;1686088;84;21195;-73
2021/01/26 00:18:20;;;;;;;22.55;9.05;;;;;;;3.02;70.46;98777.81;1695812;82;21177;-73
2021/01/26 00:20:48;;;;;;;27.17;9.90;;;;;;;3.03;70.59;98774.06;1702111;84;21575;-73
2021/01/26 00:23:17;;;;;;;26.75;9.50;;;;;;;3.04;71.04;98765.71;1695236;82;21105;-75
2021/01/26 00:25:45;;;;;;;21.13;8.93;;;;;;;3.04;71.23;98756.77;1699099;83;21192;-74
2021/01/26 00:28:14;;;;;;;22.77;8.97;;;;;;;3.02;71.65;98744.03;1711343;81;21130;-72
2021/01/26 00:30:42;;;;;;;18.52;8.40;;;;;;;3.01;71.75;98744.55;1693690;83;21178;-76
2021/01/26 00:33:15;;;;;;;24.98;8.85;;;;;;;2.99;72.00;98733.16;1694107;83;21106;-76
2021/01/26 00:35:43;;;;;;;19.35;8.08;;;;;;;2.99;72.03;98731.81;1698256;83;21218;-75
2021/01/26 00:38:11;;;;;;;18.10;8.50;;;;;;;3.00;72.24;98725.36;1692887;82;21867;-77
2021/01/26 00:40:39;;;;;;;20.80;8.47;;;;;;;3.01;72.36;98725.64;1703956;82;21185;-77
2021/01/26 00:43:10;;;;;;;16.70;8.40;;;;;;;3.04;72.45;98710.83;1706846;83;21604;-76
2021/01/26 00:45:38;;;;;;;18.73;7.83;;;;;;;3.04;72.52;98707.60;1705203;82;21576;-77
2021/01/26 00:48:07;;;;;;;21.93;8.13;;;;;;;3.06;71.91;98703.33;1686586;83;21648;-75
2021/01/26 00:50:35;;;;;;;18.05;7.72;;;;;;;3.08;72.25;98702.55;1693365;83;21172;-77
2021/01/26 00:53:03;;;;;;;20.80;8.00;;;;;;;3.07;72.49;98687.38;1686427;84;21174;-77
2021/01/26 00:55:39;;;;;;;18.95;7.92;;;;;;;3.06;72.40;98683.85;1704336;83;21169;-76
2021/01/26 00:58:08;;;;;;;21.10;8.30;;;;;;;3.06;72.29;98685.20;1661286;85;21157;-76
2021/01/26 01:00:38;;;;;;;24.85;9.28;;;;;;;3.08;72.39;98679.58;1692918;83;21137;-73
2021/01/26 01:03:10;;;;;;;24.55;8.53;;;;;;;3.10;72.27;98672.88;1696878;83;21165;-74
2021/01/26 01:05:38;;;;;;;28.50;9.65;;;;;;;3.11;72.64;98666.94;1697572;83;21141;-76
2021/01/26 01:08:06;;;;;;;29.00;9.15;;;;;;;3.12;72.67;98653.70;1707989;83;21617;-74
2021/01/26 01:10:38;;;;;;;21.77;8.57;;;;;;;3.12;72.35;98660.45;1723620;81;21148;-76
2021/01/26 01:13:06;;;;;;;19.52;8.60;;;;;;;3.13;72.67;98650.78;1704338;84;21144;-76
2021/01/26 01:15:35;;;;;;;24.77;9.63;;;;;;;3.11;72.48;98649.38;1684118;82;21145;-77
2021/01/26 01:18:03;;;;;;;22.52;8.58;;;;;;;3.07;72.67;98646.84;1687386;82;21654;-77
2021/01/26 01:20:33;;;;;;;17.50;8.05;;;;;;;3.05;72.66;98642.21;1691055;82;21170;-78
2021/01/26 01:23:01;;;;;;;16.70;8.15;;;;;;;3.03;72.60;98639.76;1708616;84;21600;-78
2021/01/26 01:25:29;;;;;;;19.48;7.95;;;;;;;3.03;72.69;98636.23;1714028;82;21596;-77
2021/01/26 01:27:57;;;;;;;16.48;7.85;;;;;;;3.03;72.96;98628.95;1694855;82;21521;-77
2021/01/26 01:30:28;;;;;;;20.20;7.70;;;;;;;3.04;73.15;98627.87;1696156;83;21145;-75
2021/01/26 01:32:57;;;;;;;18.93;7.77;;;;;;;3.05;73.25;98617.36;1699271;82;21149;-75
2021/01/26 01:35:25;;;;;;;17.37;7.55;;;;;;;3.07;73.76;98620.64;1697556;82;21191;-75
2021/01/26 01:37:53;;;;;;;21.07;7.97;;;;;;;3.06;73.85;98613.58;1694871;82;21139;-77
2021/01/26 01:40:25;;;;;;;16.17;7.37;;;;;;;3.06;74.08;98627.65;1706607;82;21144;-76
2021/01/26 01:42:53;;;;;;;18.47;7.43;;;;;;;3.02;74.57;98624.59;1700121;82;21136;-75
2021/01/26 01:45:22;;;;;;;18.60;7.33;;;;;;;2.99;75.15;98621.53;1715994;83;21194;-73
2021/01/26 01:48:20;;;;;;;19.73;6.93;;;;;;;2.94;75.55;98624.96;1701873;82;21170;-74
2021/01/26 01:50:54;;;;;;;15.18;7.17;;;;;;;2.93;75.99;98631.97;1696187;83;21155;-74
2021/01/26 01:53:39;;;;;;;21.55;7.03;;;;;;;2.91;76.53;98631.39;1703241;82;21101;-74
2021/01/26 01:56:15;;;;;;;15.88;6.80;;;;;;;2.91;77.09;98625.44;1684942;85;21577;-74
2021/01/26 01:58:50;;;;;;;21.57;7.23;;;;;;;2.90;77.34;98624.33;1694572;82;21165;-75
2021/01/26 02:01:19;;;;;;;24.90;8.20;;;;;;;2.87;77.70;98616.17;1671948;82;21633;-74
2021/01/26 02:03:53;;;;;;;21.30;7.90;;;;;;;2.87;78.13;98618.88;1699462;82;21157;-77
2021/01/26 02:06:23;;;;;;;21.60;8.43;;;;;;;2.83;78.65;98614.20;1689016;84;21193;-78
2021/01/26 02:09:02;;;;;;;20.27;8.20;;;;;;;2.79;79.21;98609.78;1707769;82;21137;-80
2021/01/26 02:11:30;;;;;;;22.83;8.93;;;;;;;2.73;79.65;98602.66;1686405;82;21369;-76
2021/01/26 02:13:58;;;;;;;22.27;8.63;;;;;;;2.68;80.13;98604.42;1685244;82;21848;-76
2021/01/26 02:16:38;;;;;;;22.62;9.08;;;;;;;2.64;80.62;98593.26;1707994;84;21151;-78
2021/01/26 02:19:48;;;;;;;22.10;8.97;;;;;;;2.63;80.76;98588.11;1705020;82;21138;-76
2021/01/26 02:23:12;;;;;;;20.33;8.17;;;;;;;2.60;81.10;98581.30;1696800;83;21155;-74
2021/01/26 02:26:20;;;;;;;17.23;8.03;;;;;;;2.58;81.47;98597.73;1630754;85;21616;-76
2021/01/26 02:28:59;;;;;;;19.03;7.80;;;;;;;2.60;81.91;98588.58;1627142;86;21306;-74
2021/01/26 02:32:02;;;;;;;16.63;7.10;;;;;;;2.60;82.18;98584.00;1689059;84;21158;-75
2021/01/26 02:35:00;;;;;;;19.13;7.50;;;;;;;2.62;82.33;98583.75;1687195;82;21160;-78
2021/01/26 02:38:13;;;;;;;16.23;6.95;;;;;;;2.63;82.86;98578.66;1722494;82;21136;-80
2021/01/26 02:41:24;;;;;;;15.97;6.43;;;;;;;2.64;83.12;98586.51;1684802;83;21134;-77
2021/01/26 02:44:34;;;;;;;16.50;6.73;;;;;;;2.63;83.69;98585.41;1708629;83;21145;-76
2021/01/26 02:47:47;;;;;;;15.03;6.87;;;;;;;2.63;84.15;98581.36;1713993;83;21130;-75
2021/01/26 02:50:49;;;;;;;15.40;6.23;;;;;;;2.65;84.21;98578.70;1720907;82;21778;-76
2021/01/26 02:53:59;;;;;;;14.07;6.30;;;;;;;2.67;84.62;98572.53;1667543;85;21137;-77
2021/01/26 02:56:41;;;;;;;14.67;6.50;;;;;;;2.69;85.03;98573.63;1697394;82;21569;-79
2021/01/26 02:59:42;;;;;;;17.90;6.87;;;;;;;2.72;85.10;98571.28;1705319;83;21203;-79
2021/01/26 03:02:15;;;;;;;16.73;7.93;;;;;;;2.76;85.16;98566.23;1684081;83;21151;-78
2021/01/26 03:04:58;;;;;;;17.20;7.97;;;;;;;2.77;85.41;98565.98;1703241;83;21129;-76
2021/01/26 03:07:27;;;;;;;15.83;7.43;;;;;;;2.79;85.44;98565.73;1702557;82;21141;-78
2021/01/26 03:09:59;;;;;;;19.93;7.97;;;;;;;2.79;85.60;98573.84;1697616;83;21187;-78
2021/01/26 03:12:37;;;;;;;17.57;7.73;;;;;;;2.80;85.83;98574.14;1674202;83;21616;-78
2021/01/26 03:15:18;;;;;;;14.93;7.67;;;;;;;2.83;86.03;98566.39;1684828;83;21188;-76
2021/01/26 03:17:51;;;;;;;15.00;7.50;;;;;;;2.86;86.39;98584.80;1698880;82;21176;-76
2021/01/26 03:20:34;;;;;;;15.87;7.60;;;;;;;2.90;86.76;98579.75;1705567;83;21163;-78
2021/01/26 03:23:14;;;;;;;19.60;7.80;;;;;;;2.92;86.93;98575.75;1715750;81;21149;-75
2021/01/26 03:25:50;;;;;;;13.50;6.93;;;;;;;2.98;87.18;98586.13;1695440;83;21148;-75
2021/01/26 03:28:19;;;;;;;14.60;7.37;;;;;;;3.02;87.27;98600.27;1718058;81;21145;-75
2021/01/26 03:30:49;;;;;;;18.50;8.28;;;;;;;3.06;87.38;98595.21;1698037;83;21167;-76
2021/01/26 03:33:28;;;;;;;17.40;8.10;;;;;;;3.07;87.63;98594.95;1695745;83;21185;-76
2021/01/26 03:35:57;;;;;;;16.73;7.60;;;;;;;3.11;87.74;98592.61;1698859;83;21160;-76
2021/01/26 03:38:27;;;;;;;;;;;;;;;3.12;87.82;98591.00;1670916;84;21141;-78
2021/01/26 03:40:56;;;;;;;17.60;7.70;;;;;;;3.14;87.84;98590.23;1686859;83;20167;-79
2021/01/26 03:43:24;;;;;;;20.03;8.10;;;;;;;3.17;87.82;98577.58;1683208;83;21329;-78
2021/01/26 03:46:09;;;;;;;17.20;8.13;;;;;;;3.24;87.89;98605.02;1717883;83;21278;-77
2021/01/26 03:49:18;;;;;;;17.00;7.87;;;;;;;3.24;87.89;98605.02;1703276;82;21541;-76
2021/01/26 03:52:19;;;;;;;17.00;7.30;;;;;;;3.28;87.78;98590.77;1720400;83;21172;-75
2021/01/26 03:55:03;;;;;;;16.40;7.80;;;;;;;3.33;87.69;98585.98;1681681;84;21626;-75
2021/01/26 03:57:57;;;;;;;16.62;8.03;;;;;;;3.37;87.70;98584.42;1689686;84;21121;-74
2021/01/26 04:00:57;;;;;;;16.67;7.50;;;;;;;3.40;87.66;98594.23;1699358;82;21137;-75
2021/01/26 04:03:47;;;;;;;19.95;8.25;;;;;;;3.46;87.62;98600.55;1720210;83;21584;-75
2021/01/26 04:06:51;;;;;;;16.00;8.57;;;;;;;3.48;87.53;98599.25;1675636;84;21205;-72
2021/01/26 04:09:23;;;;;;;14.87;7.60;;;;;;;3.50;87.39;98600.34;1706912;82;21108;-73
2021/01/26 04:12:10;;;;;;;13.78;6.60;;;;;;;3.50;87.29;98601.17;1717978;82;21129;-76
2021/01/26 04:14:49;;;;;;;13.90;6.90;;;;;;;3.50;87.32;98613.87;1719944;83;21148;-75
2021/01/26 04:17:21;;;;;;;16.10;6.50;;;;;;;3.52;87.23;98613.91;1683092;83;21145;-75
2021/01/26 04:19:59;;;;;;;14.85;7.15;;;;;;;3.55;87.02;98623.42;1679766;85;21144;-73
2021/01/26 04:22:27;;;;;;;11.55;6.28;;;;;;;3.58;86.92;98625.66;1682567;82;21193;-74
2021/01/26 04:24:55;;;;;;;15.00;6.45;;;;;;;3.62;86.82;98630.85;1679954;84;21616;-75
2021/01/26 04:27:24;;;;;;;14.70;6.53;;;;;;;3.65;86.73;98637.14;1706770;82;21212;-74
2021/01/26 04:29:52;;;;;;;11.88;5.60;;;;;;;3.68;86.55;98638.01;1728224;83;21156;-75
2021/01/26 04:32:22;;;;;;;12.90;6.17;;;;;;;3.67;86.44;98639.89;1714191;82;21196;-76
2021/01/26 04:34:50;;;;;;;15.50;6.65;;;;;;;3.70;86.42;98642.64;1713412;83;21171;-74
2021/01/26 04:37:18;;;;;;;14.00;4.80;;;;;;;3.70;86.26;98650.23;1706190;81;21200;-75
2021/01/26 04:39:46;;;;;;;8.40;3.77;;;;;;;3.70;85.92;98634.52;1723798;83;21267;-73
2021/01/26 04:42:20;;;;;;;11.90;4.23;;;;;;;3.71;85.72;98638.36;1697343;83;21226;-74
2021/01/26 04:45:05;;;;;;;10.48;4.15;;;;;;;3.72;85.55;98645.91;1640906;86;21510;-73
2021/01/26 04:47:57;;;;;;;11.65;4.70;;;;;;;3.73;85.41;98644.86;1700404;81;21218;-74
2021/01/26 04:50:55;;;;;;;9.68;4.28;;;;;;;3.72;85.08;98647.27;1710943;84;21602;-73
2021/01/26 04:53:55;;;;;;;8.63;4.62;;;;;;;3.74;84.83;98658.70;1675988;83;21131;-73
2021/01/26 04:56:38;;;;;;;14.98;5.45;;;;;;;3.72;84.77;98660.80;1694125;84;21155;-74
2021/01/26 04:59:17;;;;;;;12.00;5.45;;;;;;;3.73;84.24;98661.92;1708514;81;21175;-73
2021/01/26 05:02:23;;;;;;;11.33;5.92;;;;;;;3.73;84.19;98672.75;1710017;84;21491;-75
2021/01/26 05:05:04;;;;;;;11.40;6.05;;;;;;;3.74;84.08;98687.11;1720149;83;21571;-75
2021/01/26 05:07:43;;;;;;;10.13;6.10;;;;;;;3.72;84.14;98694.09;1722525;83;21120;-76
2021/01/26 05:10:24;;;;;;;12.20;5.58;;;;;;;3.70;84.23;98703.52;1660115;85;21137;-74
2021/01/26 05:13:02;;;;;;;8.18;4.25;;;;;;;3.66;83.97;98698.31;1701275;82;21174;-76
2021/01/26 05:15:34;;;;;;;8.18;4.35;;;;;;;3.62;83.94;98720.13;1686613;84;21192;-76
2021/01/26 05:18:13;;;;;;;7.33;3.90;;;;;;;3.60;84.04;98722.27;1686436;84;21185;-75
2021/01/26 05:20:44;;;;;;;9.40;4.03;;;;;;;3.59;84.00;98730.10;1714145;83;21106;-78
2021/01/26 05:23:16;;;;;;;7.72;3.33;;;;;;;3.56;84.00;98738.69;1710568;83;21156;-73
2021/01/26 05:25:47;;;;;;;9.33;3.77;;;;;;;3.50;83.87;98762.11;1706246;83;21149;-76
2021/01/26 05:28:14;;;;;;;5.80;3.17;;;;;;;3.45;83.76;98751.70;1724280;83;21242;-76
2021/01/26 05:30:42;;;;;;;7.33;3.40;;;;;;;3.39;83.55;98772.97;1718233;81;21137;-76
2021/01/26 05:33:13;;;;;;;9.18;4.17;;;;;;;3.34;84.10;98782.33;1694122;84;21436;-75
2021/01/26 05:35:55;;;;;;;6.62;3.70;;;;;;;3.28;84.48;98787.31;1691846;83;21232;-73
2021/01/26 05:38:23;;;;;;;7.33;4.10;;;;;;;3.21;84.46;98800.42;1680812;83;21221;-74
2021/01/26 05:40:53;;;;;;;9.15;3.98;;;;;;;3.16;84.28;98804.36;1667384;83;21190;-75
2021/01/26 05:43:25;;;;;;;8.85;4.12;;;;;;;3.13;84.55;98804.03;1716502;83;21136;-75
2021/01/26 05:45:56;;;;;;;8.28;4.28;;;;;;;3.08;84.62;98818.78;1703825;82;21184;-75
2021/01/26 05:48:25;;;;;;;8.20;4.85;;;;;;;3.05;84.67;98820.59;1691472;84;21133;-75
2021/01/26 05:51:16;;;;;;;7.78;4.20;;;;;;;3.02;84.67;98840.81;1670512;83;21268;-75
2021/01/26 05:53:44;;;;;;;6.83;3.40;;;;;;;2.97;84.21;98843.39;1715312;83;21155;-74
2021/01/26 05:56:15;;;;;;;6.23;3.23;;;;;;;2.90;83.84;98847.27;1703481;82;21146;-72
2021/01/26 05:58:44;;;;;;;6.17;3.45;;;;;;;2.84;83.53;98840.91;1691362;83;21330;-73
2021/01/26 06:01:24;;;;;;;6.00;3.67;;;;;;;2.80;83.39;98853.25;1708523;82;21107;-75
2021/01/26 06:04:11;;;;;;;8.50;4.12;;;;;;;2.74;83.23;98869.55;1691142;84;21134;-74
2021/01/26 06:06:59;;;;;;;6.97;3.65;;;;;;;2.70;83.65;98880.01;1691373;82;21117;-74
2021/01/26 06:09:34;;;;;;;7.13;3.60;;;;;;;2.64;83.76;98878.22;1696763;83;21030;-74
2021/01/26 06:12:10;;;;;;;7.13;3.73;;;;;;;2.58;83.60;98889.97;1715393;82;21219;-74
2021/01/26 06:14:39;;;;;;;8.93;4.65;;;;;;;2.54;83.90;98891.46;1718875;83;21063;-74
2021/01/26 06:17:20;;;;;;;6.53;3.45;;;;;;;2.52;84.01;98890.88;1661285;84;21129;-75
2021/01/26 06:20:09;;;;;;;6.50;3.70;;;;;;;2.50;84.01;98917.30;1665833;84;21038;-75
2021/01/26 06:22:37;;;;;;;7.77;4.00;;;;;;;2.48;83.96;98912.63;1671732;84;21556;-75
2021/01/26 06:25:13;;;;;;;11.07;5.80;;;;;;;2.45;84.06;98922.56;1707204;83;21155;-77
2021/01/26 06:28:01;;;;;;;7.57;4.40;;;;;;;2.45;83.91;98922.56;1708056;83;21479;-74
2021/01/26 06:30:43;;;;;;;9.20;5.28;;;;;;;2.44;83.88;98921.73;1693621;83;21117;-74
2021/01/26 06:33:55;;;;;;;8.77;4.60;;;;;;;2.46;84.03;98931.77;1703335;82;21126;-76
2021/01/26 06:37:00;;;;;;;7.67;4.53;;;;;;;2.47;84.20;98940.18;1694278;83;21087;-74
2021/01/26 06:39:46;;;;;;;11.07;5.50;;;;;;;2.49;83.93;98945.34;1707092;83;21086;-76
2021/01/26 06:42:44;;;;;;;14.13;8.23;;;;;;;2.47;83.91;98966.35;1714215;83;21129;-74
2021/01/26 06:45:25;;;;;;;12.40;6.78;;;;;;;2.47;84.14;98964.48;1691955;82;21034;-72
2021/01/26 06:48:45;;;;;;;11.00;6.43;;;;;;;2.45;84.12;98972.52;1719829;82;21077;-73
2021/01/26 06:51:42;;;;;;;9.67;5.67;;;;;;;2.43;84.08;98972.72;1693892;82;21170;-74
2021/01/26 06:54:52;;;;;;;11.05;6.15;;;;;;;2.42;83.70;98977.02;1676778;82;21220;-71
2021/01/26 06:57:38;;;;;;;14.80;6.17;;;;;;;2.40;83.81;98972.37;1716384;83;21234;-72
2021/01/26 07:00:28;;;;;;;15.50;8.33;;;;;;;2.38;83.62;98973.93;1713904;82;21438;-71
2021/01/26 07:03:40;;;;;;;10.50;5.67;;;;;;;2.40;83.54;98973.72;1717693;83;21174;-75
2021/01/26 07:06:34;;;;;;;12.50;6.90;;;;;;;2.42;83.04;98989.16;1715325;81;21096;-74
2021/01/26 07:09:19;;;;;;;11.67;6.73;;;;;;;2.45;82.76;98993.56;1632024;86;21562;-74
2021/01/26 07:11:58;;;;;;;12.97;6.90;;;;;;;2.50;82.47;99009.11;1697350;83;21169;-73
2021/01/26 07:14:40;;;;;;;12.23;6.53;;;;;;;2.50;82.11;99019.92;1718463;83;21046;-74
2021/01/26 07:17:08;;;;;;;13.43;6.90;;;;;;;2.52;81.69;99013.76;1691616;83;21113;-76
2021/01/26 07:19:57;;;;;;;14.75;6.75;;;;;;;2.52;81.36;99028.09;1690025;85;21402;-74
2021/01/26 07:23:04;;;;;;;9.10;5.50;;;;;;;2.53;81.20;99015.39;1703190;83;21144;-74
2021/01/26 07:26:08;;;;;;;12.37;6.60;;;;;;;2.51;81.05;99018.84;1698605;82;21041;-73
2021/01/26 07:28:50;;;;;;;13.93;7.27;;;;;;;2.54;81.48;99021.93;1697261;83;21086;-73
2021/01/26 07:31:45;;;;;;;13.97;7.40;;;;;;;2.57;80.85;99027.41;1682163;82;21119;-75
2021/01/26 07:34:43;;;;;;;11.13;6.50;;;;;;;2.60;80.52;99035.06;1694643;83;21497;-75
2021/01/26 07:37:34;;;;;;;13.70;6.62;;;;;;;2.62;79.43;99037.00;1715667;83;21193;-74
2021/01/26 07:40:50;;;;;;;11.90;6.80;;;;;;;2.64;79.54;99040.81;1692584;83;21074;-76
2021/01/26 07:43:44;;;;;;;17.60;8.53;;;;;;;2.62;78.35;99045.11;1691084;82;21153;-75
2021/01/26 07:46:37;;;;;;;12.87;6.70;;;;;;;2.63;78.91;99056.22;1716356;83;21109;-73
2021/01/26 07:49:22;;;;;;;11.83;6.73;;;;;;;2.64;78.10;99051.09;1688138;83;21015;-74
2021/01/26 07:51:57;;;;;;;12.90;6.77;;;;;;;2.67;77.57;99084.94;1717760;83;21553;-75
2021/01/26 07:54:46;;;;;;;11.90;6.70;;;;;;;2.64;76.78;99095.67;1685572;83;21010;-74
2021/01/26 07:57:15;;;;;;;11.67;6.63;;;;;;;2.65;76.83;99104.09;1704724;82;21137;-75
2021/01/26 07:59:53;;;;;;;11.65;6.05;;;;;;;2.64;76.24;99113.23;1714906;83;21029;-76
2021/01/26 08:02:31;;;;;;;11.93;6.17;;;;;;;2.64;75.67;99107.83;1725602;81;21099;-75
2021/01/26 08:05:07;;;;;;;12.60;6.47;;;;;;;2.60;75.44;99132.30;1686423;84;21043;-74
2021/01/26 08:07:36;;;;;;;13.03;7.20;;;;;;;2.57;74.90;99143.55;1709803;82;21109;-75
2021/01/26 08:10:05;;;;;;;12.73;7.03;;;;;;;2.54;74.83;99161.03;1702687;82;21481;-75
2021/01/26 08:12:38;;;;;;;11.47;7.20;;;;;;;2.54;74.62;99171.00;1714840;83;21569;-75
2021/01/26 08:15:17;;;;;;;14.87;7.90;;;;;;;2.51;74.59;99178.19;1713437;82;21011;-74
2021/01/26 08:17:45;;;;;;;13.13;7.43;;;;;;;2.49;75.18;99191.09;1693746;84;21118;-75
2021/01/26 08:20:27;;;;;;;15.48;8.10;;;;;;;2.45;75.28;99190.70;1677505;82;21492;-75
2021/01/26 08:22:59;;;;;;;17.03;9.30;;;;;;;2.43;75.01;99206.83;1673948;86;21560;-75
2021/01/26 08:25:35;;;;;;;15.50;8.63;;;;;;;2.44;75.16;99216.59;1695106;82;21516;-75
2021/01/26 08:28:42;;;;;;;16.07;9.87;;;;;;;2.46;75.51;99211.79;1700897;84;21143;-75
2021/01/26 08:31:30;;;;;;;17.02;9.45;;;;;;;2.49;74.64;99212.70;1712216;82;21220;-74
2021/01/26 08:34:24;;;;;;;18.47;9.93;;;;;;;2.53;74.85;99236.34;1713564;84;21066;-75
2021/01/26 08:37:17;;;;;;;16.07;9.30;;;;;;;2.54;74.43;99235.30;1699672;82;21113;-71
2021/01/26 08:39:49;;;;;;;17.10;9.00;;;;;;;2.54;74.12;99238.52;1705547;82;21096;-72
2021/01/26 08:42:49;;;;;;;15.77;9.03;;;;;;;2.55;73.62;99241.53;1710851;83;21081;-72
2021/01/26 08:45:33;;;;;;;16.37;8.75;;;;;;;2.54;73.52;99255.56;1701298;81;21199;-72
2021/01/26 08:48:05;;;;;;;15.83;9.03;;;;;;;2.52;74.06;99252.26;1704897;84;21121;-74
2021/01/26 08:50:46;;;;;;;15.50;9.33;;;;;;;2.53;74.11;99257.95;1708602;82;21463;-74
2021/01/26 08:53:38;;;;;;;18.40;9.98;;;;;;;2.55;74.42;99256.39;1692197;83;21508;-70
2021/01/26 08:56:31;;;;;;;18.63;10.83;;;;;;;2.58;74.81;99251.07;1711075;82;21096;-75
2021/01/26 08:59:01;;;;;;;18.43;10.50;;;;;;;2.58;75.08;99258.11;1716505;83;21036;-73
2021/01/26 09:01:39;;;;;;;21.77;10.57;;;;;;;2.58;74.94;99259.45;1721872;81;21117;-74
2021/01/26 09:04:23;;;;;;;22.93;12.03;;;;;;;2.58;75.25;99266.21;1699737;84;21093;-73
2021/01/26 09:06:48;;;;;;;19.30;11.30;;;;;;;2.61;75.38;99277.09;1694989;82;21119;-75
2021/01/26 09:09:23;;;;;;;;;;;;;;;2.63;74.78;99275.55;1688704;84;21036;-75
2021/01/26 09:11:53;;;;;;;18.77;10.63;;;;;;;2.60;74.85;99271.41;1689697;82;20475;-75
2021/01/26 09:14:38;;;;;;;20.73;11.57;;;;;;;2.59;75.45;99276.50;1706304;84;21092;-77
2021/01/26 09:17:26;;;;;;;20.83;11.70;;;;;;;2.58;75.53;99287.82;1697031;82;21154;-77
2021/01/26 09:20:18;;;;;;;24.07;12.68;;;;;;;2.61;75.39;99283.84;1700746;84;21092;-78
2021/01/26 09:22:46;;;;;;;20.13;11.83;;;;;;;2.64;75.47;99279.36;1618647;84;21318;-79
2021/01/26 09:25:22;;;;;;;18.50;11.25;;;;;;;2.67;75.12;99286.20;1628925;82;21084;-77
2021/01/26 09:28:06;;;;;;;18.23;11.13;;;;;;;2.69;74.94;99294.91;1717095;81;21145;-76
2021/01/26 09:30:36;;;;;;;16.17;9.93;;;;;;;2.71;74.72;99299.03;1725923;81;21069;-76
2021/01/26 09:33:18;;;;;;;18.27;10.53;;;;;;;2.72;74.84;99306.63;1707745;83;21093;-77
2021/01/26 09:36:03;;;;;;;20.33;11.40;;;;;;;2.75;74.49;99321.88;1739816;82;21051;-75
2021/01/26 09:38:43;;;;;;;23.77;12.57;;;;;;;2.78;74.39;99333.61;1707825;81;21171;-75
2021/01/26 09:41:25;;;;;;;22.77;12.73;;;;;;;2.84;74.43;99324.59;1718246;81;21076;-78
2021/01/26 09:44:07;;;;;;;19.37;10.23;;;;;;;2.87;74.74;99324.16;1726619;81;21076;-74
2021/01/26 09:46:41;;;;;;;19.33;10.40;;;;;;;2.88;74.48;99304.20;1721680;82;21116;-77
2021/01/26 09:49:27;;;;;;;16.57;9.53;;;;;;;2.89;74.29;99318.00;1703953;82;21125;-75
2021/01/26 09:52:07;;;;;;;16.73;9.03;;;;;;;2.91;74.49;99306.44;1692045;84;21685;-76
2021/01/26 09:54:40;;;;;;;16.43;8.63;;;;;;;2.97;73.90;99319.59;1698035;82;21058;-77
2021/01/26 09:57:10;;;;;;;18.63;9.43;;;;;;;3.02;73.80;99317.88;1690839;83;21552;-78
2021/01/26 09:59:39;;;;;;;18.77;10.13;;;;;;;3.08;73.69;99321.06;1686007;82;21079;-73
2021/01/26 10:02:11;;;;;;;17.67;8.65;;;;;;;3.13;73.75;99311.75;1712901;82;21085;-76
2021/01/26 10:04:41;;;;;;;14.95;7.85;;;;;;;3.17;72.68;99321.58;1676387;83;21130;-77
2021/01/26 10:07:14;;;;;;;15.80;7.33;;;;;;;3.20;72.66;99319.27;1704031;83;21105;-74
2021/01/26 10:09:42;;;;;;;14.73;7.55;;;;;;;3.23;71.79;99314.45;1674417;82;21182;-75
2021/01/26 10:12:28;;;;;;;15.38;7.70;;;;;;;3.27;71.85;99317.00;1681872;83;21119;-72
2021/01/26 10:15:27;;;;;;;15.70;8.70;;;;;;;3.31;72.21;99333.93;1693548;82;22219;-71
2021/01/26 10:18:13;;;;;;;17.12;8.95;;;;;;;3.38;72.24;99335.20;1680739;84;21544;-73
2021/01/26 10:20:57;;;;;;;16.20;8.80;;;;;;;3.42;71.69;99336.39;1706320;82;21477;-72
2021/01/26 10:23:43;;;;;;;14.18;7.62;;;;;;;3.45;72.27;99340.84;1701402;84;21187;-72
2021/01/26 10:26:24;;;;;;;14.15;8.10;;;;;;;3.48;71.73;99343.62;1722477;81;21463;-72
2021/01/26 10:29:15;;;;;;;13.53;7.33;;;;;;;3.49;71.72;99341.23;1698118;83;21144;-73
2021/01/26 10:31:55;;;;;;;14.63;7.60;;;;;;;3.51;71.76;99340.47;1646411;84;21117;-72
2021/01/26 10:34:46;;;;;;;14.28;7.15;;;;;;;3.55;71.98;99327.61;1698907;84;21057;-75
2021/01/26 10:37:28;;;;;;;15.60;7.83;;;;;;;3.62;71.20;99324.81;1687689;82;21092;-73
2021/01/26 10:40:33;;;;;;;13.78;8.25;;;;;;;3.64;71.20;99317.33;1696583;84;21004;-76
2021/01/26 10:43:08;;;;;;;17.23;8.33;;;;;;;3.66;70.85;99321.98;1702130;82;21124;-73
2021/01/26 10:45:47;;;;;;;14.38;7.85;;;;;;;3.69;70.85;99331.00;1693752;83;21077;-78
2021/01/26 10:48:35;;;;;;;14.40;7.45;;;;;;;3.68;70.95;99330.69;1692910;82;21086;-84
2021/01/26 10:51:16;;;;;;;12.78;7.42;;;;;;;3.69;70.77;99332.35;1701582;82;21552;-77
2021/01/26 10:53:46;;;;;;;12.58;7.33;;;;;;;3.69;70.88;99327.73;1697744;82;21073;-82
2021/01/26 10:56:14;;;;;;;13.43;7.20;;;;;;;3.72;70.93;99323.75;1688045;82;22142;-76
2021/01/26 10:58:44;;;;;;;13.88;7.92;;;;;;;3.73;70.96;99322.19;1691763;82;21205;-80
2021/01/26 11:01:13;;;;;;;16.60;8.08;;;;;;;3.75;70.83;99317.89;1694930;83;21226;-79
2021/01/26 11:03:41;;;;;;;13.60;7.95;;;;;;;3.75;70.70;99331.42;1696568;82;21104;-76
2021/01/26 11:06:10;;;;;;;16.25;8.20;;;;;;;3.74;70.56;99331.14;1703509;83;21092;-78
2021/01/26 11:08:38;;;;;;;14.25;8.00;;;;;;;3.73;70.77;99311.89;1697743;82;21042;-77
2021/01/26 11:11:06;;;;;;;18.20;8.98;;;;;;;3.71;71.07;99333.78;1699841;83;21101;-78
2021/01/26 11:13:34;;;;;;;17.40;10.30;;;;;;;3.69;71.09;99324.23;1703747;82;21714;-75
2021/01/26 11:16:02;;;;;;;16.87;9.75;;;;;;;3.67;70.84;99342.55;1694600;84;21580;-76
2021/01/26 11:18:30;;;;;;;17.00;9.15;;;;;;;3.66;70.95;99337.69;1698027;82;21529;-75
2021/01/26 11:21:01;;;;;;;18.73;8.90;;;;;;;3.67;70.99;99339.84;1698661;82;21094;-78
2021/01/26 11:23:29;;;;;;;16.15;9.63;;;;;;;3.68;71.33;99337.45;1693156;82;21090;-76
2021/01/26 11:25:57;;;;;;;18.02;9.95;;;;;;;3.67;71.66;99335.27;1700317;84;21548;-75
2021/01/26 11:28:24;;;;;;;17.87;9.95;;;;;;;3.67;71.57;99329.02;1701242;84;21157;-76
2021/01/26 11:30:52;;;;;;;19.35;10.78;;;;;;;3.66;71.75;99328.73;1703647;82;21708;-73
2021/01/26 11:33:21;;;;;;;19.40;9.78;;;;;;;3.65;71.78;99329.78;1707944;83;21100;-75
2021/01/26 11:35:49;;;;;;;16.37;8.85;;;;;;;3.64;72.04;99325.44;1706024;81;21497;-75
2021/01/26 11:38:17;;;;;;;17.55;8.68;;;;;;;3.63;72.20;99327.31;1724094;81;21044;-74
2021/01/26 11:40:45;;;;;;;14.18;8.48;;;;;;;3.64;72.28;99332.20;1667355;84;21492;-76
2021/01/26 11:43:13;;;;;;;15.15;8.75;;;;;;;3.63;72.68;99328.66;1675356;84;21109;-74
2021/01/26 11:45:42;;;;;;;14.87;9.05;;;;;;;3.65;72.58;99336.55;1684379;83;21187;-75
2021/01/26 11:48:10;;;;;;;16.67;9.00;;;;;;;3.66;72.16;99349.03;1687899;84;21104;-77
2021/01/26 11:50:40;;;;;;;16.85;9.75;;;;;;;3.66;72.89;99339.56;1694349;83;21113;-78
2021/01/26 11:53:11;;;;;;;17.10;9.58;;;;;;;3.66;73.25;99349.03;1692760;83;21195;-76
2021/01/26 11:55:39;;;;;;;17.02;9.43;;;;;;;3.66;72.35;99340.91;1711416;81;21031;-75
2021/01/26 11:58:07;;;;;;;18.92;9.13;;;;;;;3.68;72.32;99352.33;1715764;82;21527;-76
2021/01/26 12:00:36;;;;;;;17.48;9.03;;;;;;;3.69;72.86;99341.82;1671241;84;21112;-76
2021/01/26 12:03:05;;;;;;;16.42;9.45;;;;;;;3.72;72.54;99342.70;1671169;83;21053;-75
2021/01/26 12:05:39;;;;;;;17.05;10.08;;;;;;;3.76;72.50;99337.15;1697164;83;21101;-75
2021/01/26 12:08:07;;;;;;;19.05;11.35;;;;;;;3.80;72.55;99327.52;1696280;83;21310;-76
2021/01/26 12:10:35;;;;;;;;;;;;;;;3.85;72.38;99327.66;1692733;83;21068;-74
2021/01/26 12:13:05;;;;;;;19.23;10.60;;;;;;;3.91;72.41;99328.63;1693481;83;20527;-74
2021/01/26 12:15:35;;;;;;;;;;;;;;;3.94;72.52;99328.18;1694157;83;21030;-73
2021/01/26 12:18:05;;;;;;;20.05;11.10;;;;;;;3.97;72.35;99337.20;1686132;83;20151;-76
2021/01/26 12:20:33;;;;;;;;;;;;;;;3.96;72.65;99329.60;1696523;83;21151;-76
2021/01/26 12:23:01;;;;;;;11.83;6.83;;;;;;;3.97;72.80;99323.15;1667596;85;20251;-75
2021/01/26 12:25:30;;;;;;;14.70;7.25;;;;;;;3.98;73.10;99310.41;1700827;83;21177;-76
2021/01/26 12:27:59;;;;;;;15.00;7.40;;;;;;;4.00;73.08;99307.77;1690042;83;21061;-80